Time;durP1;ratioP1;P1;durP2;ratioP2;P2;SDS_P1;SDS_P2;PMS_P1;PMS_P2;Temp;Humidity;BMP_temperature;BMP_pressure;BME280_temperature;BME280_humidity;BME280_pressure;Samples;Min_cycle;Max_cycle;Signal;HPM_P1;HPM_P2
2022/04/26 03:36:38;;;;;;;14.53;7.97;;;3.60;99.90;;;;;;5092968;28;20413;-65
2022/04/26 03:39:05;;;;;;;12.30;8.80;;;3.50;99.90;;;;;;5074031;28;20447;-65
2022/04/26 03:41:35;;;;;;;10.93;8.13;;;3.40;99.90;;;;;;5093040;28;20848;-69
2022/04/26 03:44:01;;;;;;;13.93;9.10;;;3.40;99.90;;;;;;5093072;28;20396;-64
2022/04/26 03:46:27;;;;;;;14.63;8.13;;;3.40;99.90;;;;;;5092903;28;20757;-64
2022/04/26 03:52:46;;;;;;;12.07;8.37;;;3.40;99.90;;;;;;5029825;28;21000;-66
2022/04/26 03:55:14;;;;;;;12.33;8.00;;;3.40;99.90;;;;;;5014167;28;20431;-64
2022/04/26 03:57:40;;;;;;;16.60;9.47;;;3.40;99.90;;;;;;5091665;28;20459;-67
2022/04/26 04:00:06;;;;;;;9.90;8.30;;;3.40;99.90;;;;;;5092143;28;20902;-67
2022/04/26 04:02:32;;;;;;;10.70;8.20;;;3.40;99.90;;;;;;5092630;28;20428;-68
2022/04/26 04:05:01;;;;;;;13.47;9.93;;;3.40;99.90;;;;;;5092639;28;20827;-68
2022/04/26 04:07:27;;;;;;;11.40;7.80;;;3.40;99.90;;;;;;5092793;28;20205;-64
2022/04/26 04:09:54;;;;;;;16.50;9.50;;;3.40;99.90;;;;;;5091156;28;20435;-64
2022/04/26 04:12:20;;;;;;;11.90;8.00;;;3.30;99.90;;;;;;5091300;28;20229;-67
2022/04/26 04:14:46;;;;;;;12.70;7.70;;;3.20;99.90;;;;;;5092862;28;20427;-64
2022/04/26 04:17:12;;;;;;;14.93;8.90;;;3.20;99.90;;;;;;5074649;28;20459;-66
2022/04/26 04:19:38;;;;;;;11.03;8.33;;;3.30;99.90;;;;;;5091871;28;20879;-67
2022/04/26 04:22:05;;;;;;;11.77;8.93;;;3.20;99.90;;;;;;5092631;28;20450;-64
2022/04/26 04:24:32;;;;;;;12.83;9.93;;;3.30;99.90;;;;;;5092571;28;20435;-64
2022/04/26 04:26:58;;;;;;;12.73;8.70;;;3.30;99.90;;;;;;5091932;28;20401;-69
2022/04/26 04:29:31;;;;;;;8.70;7.80;;;3.30;99.90;;;;;;5073392;28;20439;-65
2022/04/26 04:31:57;;;;;;;14.93;10.00;;;3.40;99.90;;;;;;5092444;28;20434;-64
2022/04/26 04:34:23;;;;;;;15.87;8.63;;;3.40;99.90;;;;;;5092534;28;20839;-67
2022/04/26 04:36:49;;;;;;;16.90;9.10;;;3.50;99.90;;;;;;5096138;28;20498;-64
2022/04/26 04:39:19;;;;;;;15.40;10.20;;;3.50;99.90;;;;;;5095260;28;20408;-68
2022/04/26 04:41:50;;;;;;;14.10;8.50;;;3.60;99.90;;;;;;5095802;28;20245;-64
2022/04/26 04:44:16;;;;;;;16.73;10.00;;;3.60;99.90;;;;;;5095815;28;20407;-68
2022/04/26 04:46:42;;;;;;;13.80;9.03;;;3.70;99.90;;;;;;5077718;28;20814;-68
2022/04/26 04:49:08;;;;;;;15.10;9.90;;;3.70;99.90;;;;;;5076286;28;20412;-67
2022/04/26 04:51:34;;;;;;;14.67;9.30;;;3.70;99.90;;;;;;5095654;28;20412;-68
2022/04/26 04:54:01;;;;;;;15.37;10.17;;;3.70;99.90;;;;;;5095783;28;20471;-66
2022/04/26 04:56:28;;;;;;;12.07;8.93;;;3.80;99.90;;;;;;5095620;28;20888;-65
2022/04/26 04:58:54;;;;;;;15.43;9.50;;;3.80;99.90;;;;;;5094897;28;20440;-67
2022/04/26 05:01:21;;;;;;;13.70;9.73;;;3.80;99.90;;;;;;5095360;28;20460;-67
2022/04/26 05:03:47;;;;;;;14.83;9.97;;;3.90;99.90;;;;;;5095446;28;20458;-68
2022/04/26 05:06:14;;;;;;;16.03;10.03;;;3.90;99.90;;;;;;5095598;28;20404;-65
2022/04/26 05:12:02;;;;;;;15.83;9.83;;;4.00;99.90;;;;;;5095359;28;20551;-64
2022/04/26 05:14:28;;;;;;;12.83;9.70;;;3.90;99.90;;;;;;5095310;28;20400;-65
2022/04/26 05:16:56;;;;;;;15.17;10.80;;;3.90;99.90;;;;;;5095352;28;20402;-67
2022/04/26 05:19:22;;;;;;;20.63;10.70;;;4.00;99.90;;;;;;5076425;28;20428;-65
2022/04/26 05:21:48;;;;;;;16.30;10.77;;;4.10;99.90;;;;;;5095082;28;20494;-65
2022/04/26 05:26:59;;;;;;;13.40;10.10;;;4.20;99.90;;;;;;5094775;28;20180;-68
2022/04/26 05:29:24;;;;;;;17.63;10.97;;;4.20;99.90;;;;;;5093860;28;20412;-65
2022/04/26 05:31:50;;;;;;;22.37;12.40;;;4.40;99.90;;;;;;5076968;28;20957;-65
2022/04/26 05:34:16;;;;;;;22.53;12.97;;;4.50;99.90;;;;;;5094985;28;20161;-68
2022/04/26 05:36:42;;;;;;;18.20;11.83;;;4.60;99.90;;;;;;5095078;28;20684;-64
2022/04/26 05:39:08;;;;;;;19.83;14.10;;;4.70;99.90;;;;;;5094099;28;20182;-65
2022/04/26 05:41:36;;;;;;;22.53;12.73;;;4.80;99.90;;;;;;5094815;28;20182;-66
2022/04/26 05:44:05;;;;;;;21.20;12.10;;;4.90;99.90;;;;;;5094792;28;20568;-69
2022/04/26 05:46:31;;;;;;;18.53;12.50;;;5.00;99.90;;;;;;5093816;28;20414;-71
2022/04/26 05:48:57;;;;;;;18.53;12.90;;;5.10;99.90;;;;;;5093462;28;20412;-70
2022/04/26 05:51:23;;;;;;;24.40;13.35;;;5.10;99.90;;;;;;5094595;28;20473;-63
2022/04/26 05:53:48;;;;;;;22.03;14.13;;;5.30;99.90;;;;;;5094623;28;20522;-62
2022/04/26 05:56:15;;;;;;;23.77;14.50;;;5.40;99.90;;;;;;5094539;28;20170;-63
2022/04/26 05:58:41;;;;;;;17.23;13.17;;;5.50;99.90;;;;;;5093775;28;20181;-65
2022/04/26 06:01:06;;;;;;;21.00;15.20;;;5.60;99.90;;;;;;5076249;28;20454;-65
2022/04/26 06:03:33;;;;;;;26.73;13.90;;;5.70;99.90;;;;;;5094400;28;20201;-63
2022/04/26 06:05:59;;;;;;;17.27;12.27;;;5.80;99.90;;;;;;5093227;28;20197;-62
2022/04/26 06:08:25;;;;;;;18.93;11.83;;;5.90;99.90;;;;;;5094220;28;20407;-65
2022/04/26 06:10:51;;;;;;;25.23;14.30;;;6.00;99.90;;;;;;5093837;28;20180;-64
2022/04/26 06:13:16;;;;;;;21.57;14.23;;;6.10;99.90;;;;;;5076154;28;20190;-65
2022/04/26 06:15:42;;;;;;;21.00;13.30;;;6.20;99.90;;;;;;5094221;28;20946;-65
2022/04/26 06:18:07;;;;;;;24.07;13.57;;;6.30;99.90;;;;;;5094119;28;20170;-65
2022/04/26 06:20:33;;;;;;;20.30;13.60;;;6.40;99.90;;;;;;5075341;28;20681;-65
2022/04/26 06:23:00;;;;;;;19.90;12.70;;;6.50;99.90;;;;;;5093988;28;20185;-66
2022/04/26 06:25:26;;;;;;;23.57;15.63;;;6.60;99.90;;;;;;5093531;28;20165;-67
2022/04/26 06:27:51;;;;;;;34.70;13.37;;;6.70;99.90;;;;;;5093634;28;20388;-67
2022/04/26 06:30:17;;;;;;;19.50;14.10;;;6.90;99.90;;;;;;5075261;28;20173;-65
2022/04/26 06:32:43;;;;;;;19.00;13.73;;;6.90;99.90;;;;;;5093870;28;20701;-68
2022/04/26 06:35:10;;;;;;;27.17;16.17;;;7.10;99.90;;;;;;5093868;28;20169;-65
2022/04/26 06:37:36;;;;;;;24.70;15.30;;;7.20;99.90;;;;;;5075830;28;20171;-68
2022/04/26 06:40:03;;;;;;;27.57;16.40;;;7.30;99.90;;;;;;5093066;28;20965;-69
2022/04/26 06:42:29;;;;;;;25.97;13.80;;;7.40;99.90;;;;;;5093357;28;20404;-67
2022/04/26 06:44:54;;;;;;;28.37;16.47;;;7.50;99.90;;;;;;5092682;28;20400;-69
2022/04/26 06:47:20;;;;;;;23.50;14.33;;;7.60;99.90;;;;;;5093976;28;20163;-64
2022/04/26 06:49:46;;;;;;;22.57;14.60;;;7.80;99.90;;;;;;5092938;28;20167;-65
2022/04/26 06:52:11;;;;;;;22.70;14.97;;;7.90;99.90;;;;;;5093525;28;20663;-68
2022/04/26 06:54:37;;;;;;;23.47;13.87;;;8.10;99.90;;;;;;5075527;28;20175;-68
2022/04/26 06:57:03;;;;;;;22.30;16.03;;;8.10;99.90;;;;;;5092933;28;20526;-65
2022/04/26 06:59:28;;;;;;;25.73;15.70;;;8.20;99.90;;;;;;5092466;28;20448;-68
2022/04/26 07:01:55;;;;;;;28.50;15.03;;;8.40;99.90;;;;;;5093273;28;20211;-67
2022/04/26 07:04:21;;;;;;;23.60;13.40;;;8.50;99.90;;;;;;5092474;28;20164;-70
2022/04/26 07:06:48;;;;;;;21.33;14.80;;;8.70;99.90;;;;;;5075131;28;20480;-68
2022/04/26 07:09:14;;;;;;;26.07;13.33;;;8.80;99.90;;;;;;5092670;28;20454;-69
2022/04/26 07:11:42;;;;;;;19.40;11.80;;;8.80;99.90;;;;;;5093112;28;20427;-65
2022/04/26 07:14:12;;;;;;;21.70;12.07;;;9.00;99.90;;;;;;5093323;28;20710;-68
2022/04/26 07:16:38;;;;;;;16.80;11.83;;;9.10;99.90;;;;;;5093128;28;20429;-66
2022/04/26 07:19:04;;;;;;;15.90;11.20;;;9.20;99.90;;;;;;5092542;28;20887;-65
2022/04/26 07:21:30;;;;;;;13.77;10.03;;;9.30;99.90;;;;;;5093159;28;20192;-64
2022/04/26 07:23:55;;;;;;;18.93;13.00;;;9.40;99.90;;;;;;5092402;28;20410;-67
2022/04/26 07:26:21;;;;;;;17.67;11.23;;;9.50;99.90;;;;;;5092856;28;20542;-69
2022/04/26 07:28:47;;;;;;;22.43;10.63;;;9.50;99.90;;;;;;5092358;28;20559;-65
2022/04/26 07:31:12;;;;;;;17.27;12.00;;;9.70;99.90;;;;;;5075178;28;20169;-68
2022/04/26 07:36:22;;;;;;;13.43;10.50;;;9.90;99.90;;;;;;5093073;28;20172;-68
2022/04/26 07:38:49;;;;;;;15.30;10.10;;;10.00;99.90;;;;;;5092248;28;20411;-69
2022/04/26 07:41:15;;;;;;;14.43;10.80;;;10.10;99.90;;;;;;5091846;28;20443;-67
2022/04/26 07:43:41;;;;;;;15.40;8.73;;;10.20;99.90;;;;;;5092902;28;20422;-67
2022/04/26 07:46:07;;;;;;;11.33;8.87;;;10.30;99.90;;;;;;5093068;28;20485;-70
2022/04/26 07:48:36;;;;;;;11.17;8.30;;;10.30;99.90;;;;;;5092259;28;20693;-70
2022/04/26 07:51:03;;;;;;;15.57;8.90;;;10.40;99.90;;;;;;5092824;28;20756;-66
2022/04/26 07:53:29;;;;;;;12.40;8.10;;;10.50;99.90;;;;;;5074740;28;20463;-66
2022/04/26 07:55:54;;;;;;;11.87;7.90;;;10.60;99.90;;;;;;5075019;28;20463;-66
2022/04/26 07:58:20;;;;;;;11.57;8.30;;;10.70;99.90;;;;;;5092761;28;20189;-66
2022/04/26 08:00:46;;;;;;;13.20;9.00;;;10.80;99.90;;;;;;5091438;28;20475;-67
2022/04/26 08:03:13;;;;;;;12.57;9.70;;;10.90;99.90;;;;;;5092395;28;20546;-70
2022/04/26 08:05:38;;;;;;;11.00;6.70;;;11.10;99.90;;;;;;5092786;28;20158;-70
2022/04/26 08:08:04;;;;;;;9.27;6.40;;;11.30;99.90;;;;;;5092869;28;20374;-69
2022/04/26 08:10:30;;;;;;;8.20;6.27;;;11.40;99.90;;;;;;5095395;28;20223;-71
2022/04/26 08:12:56;;;;;;;7.30;6.13;;;11.40;99.90;;;;;;5096418;28;20911;-65
2022/04/26 08:15:21;;;;;;;8.07;6.10;;;11.50;99.90;;;;;;5096704;28;20169;-64
2022/04/26 08:17:48;;;;;;;7.83;5.80;;;11.60;99.90;;;;;;5078969;28;20185;-64
2022/04/26 08:20:14;;;;;;;7.07;6.37;;;11.70;99.90;;;;;;5095590;28;20221;-65
2022/04/26 08:22:40;;;;;;;7.80;5.97;;;11.90;99.90;;;;;;5096723;28;20479;-68
2022/04/26 08:27:49;;;;;;;6.50;5.87;;;12.20;97.00;;;;;;5096734;28;20743;-69
2022/04/26 08:30:16;;;;;;;5.43;4.90;;;12.30;92.90;;;;;;5095969;28;20378;-63
2022/04/26 08:32:47;;;;;;;6.77;6.07;;;12.40;92.80;;;;;;5096529;28;20189;-64
2022/04/26 08:35:15;;;;;;;6.70;5.37;;;12.50;89.50;;;;;;5096376;28;20404;-69
2022/04/26 08:37:43;;;;;;;5.43;4.93;;;12.60;91.60;;;;;;5096139;28;20407;-68
2022/04/26 08:40:10;;;;;;;6.60;5.90;;;12.70;90.10;;;;;;5095513;28;20414;-69
2022/04/26 08:42:40;;;;;;;4.97;4.53;;;12.90;83.60;;;;;;5096356;28;20405;-64
2022/04/26 08:45:08;;;;;;;8.37;6.03;;;13.10;74.70;;;;;;5096270;28;20378;-69
2022/04/26 08:53:05;;;;;;;6.67;5.97;;;13.50;47.60;;;;;;5096529;28;20437;-64
2022/04/26 08:55:32;;;;;;;6.00;4.90;;;13.80;45.10;;;;;;5095643;28;20835;-63
2022/04/26 08:57:58;;;;;;;6.07;4.83;;;13.60;30.20;;;;;;5096045;28;20442;-67
2022/04/26 09:00:25;;;;;;;5.97;5.47;;;13.90;34.70;;;;;;5095379;28;20921;-66
2022/04/26 09:03:02;;;;;;;6.00;5.40;;;14.20;38.80;;;;;;5096086;28;20394;-62
2022/04/26 09:05:28;;;;;;;5.93;4.90;;;14.40;34.70;;;;;;5095967;28;20415;-63
2022/04/26 09:07:54;;;;;;;6.30;5.40;;;14.60;34.90;;;;;;5095959;28;20461;-63
2022/04/26 09:10:20;;;;;;;5.47;5.00;;;14.80;27.20;;;;;;5095011;28;20479;-63
2022/04/26 09:13:04;;;;;;;7.57;5.53;;;14.90;26.10;;;;;;5095404;28;20193;-66
2022/04/26 09:15:47;;;;;;;5.40;4.53;;;15.20;23.00;;;;;;5095600;28;20399;-65
2022/04/26 09:18:27;;;;;;;5.03;4.53;;;15.30;19.10;;;;;;5095772;28;20415;-67
2022/04/26 09:20:57;;;;;;;5.40;5.00;;;15.10;1.00;;;;;;5094504;28;20922;-63
2022/04/26 09:23:26;;;;;;;5.73;5.03;;;15.30;2.80;;;;;;5113120;28;20426;-63
2022/04/26 09:26:09;;;;;;;5.40;4.70;;;15.50;3.40;;;;;;5115899;28;20399;-67
2022/04/26 09:28:37;;;;;;;7.27;4.17;;;15.50;1.00;;;;;;5114704;28;20415;-67
2022/04/26 09:31:16;;;;;;;4.70;4.30;;;15.30;1.00;;;;;;5113831;28;20415;-63
2022/04/26 09:33:47;;;;;;;5.40;4.50;;;15.50;1.00;;;;;;5115305;28;20508;-63
2022/04/26 09:36:13;;;;;;;6.53;5.90;;;15.90;1.00;;;;;;5115628;28;20748;-67
2022/04/26 09:38:41;;;;;;;5.00;4.33;;;16.30;1.00;;;;;;5098499;28;20495;-67
2022/04/26 09:41:09;;;;;;;3.90;3.47;;;16.80;1.00;;;;;;5115202;28;20460;-67
2022/04/26 09:43:36;;;;;;;5.70;5.20;;;17.10;1.00;;;;;;5115413;28;20791;-63
2022/04/26 09:46:04;;;;;;;6.27;5.63;;;17.30;1.00;;;;;;5115226;28;20403;-68
2022/04/26 09:48:39;;;;;;;5.87;5.30;;;17.40;1.00;;;;;;5094398;28;20740;-70
2022/04/26 09:51:07;;;;;;;5.57;4.63;;;17.80;1.00;;;;;;5095504;28;20498;-68
2022/04/26 09:53:33;;;;;;;4.57;4.23;;;18.40;1.00;;;;;;5115357;28;20447;-68
2022/04/26 09:56:00;;;;;;;7.20;6.50;;;18.40;1.00;;;;;;5097115;28;20426;-64
2022/04/26 09:58:28;;;;;;;6.43;4.73;;;18.60;1.00;;;;;;5115016;28;20629;-67
2022/04/26 10:00:56;;;;;;;16.00;5.40;;;18.40;1.00;;;;;;5114792;28;20446;-63
2022/04/26 10:03:30;;;;;;;5.50;4.90;;;18.60;1.00;;;;;;5115170;28;20418;-67
2022/04/26 10:06:01;;;;;;;5.20;4.70;;;19.00;1.00;;;;;;5114653;28;20497;-68
2022/04/26 10:08:32;;;;;;;4.50;4.10;;;19.30;1.00;;;;;;5097053;28;20895;-68
2022/04/26 10:11:00;;;;;;;4.87;4.37;;;19.60;1.00;;;;;;5115313;28;20448;-67
2022/04/26 10:13:32;;;;;;;4.80;4.20;;;20.00;1.00;;;;;;5114979;28;20427;-68
2022/04/26 10:16:19;;;;;;;4.30;3.90;;;20.30;1.00;;;;;;5096620;28;20895;-64
2022/04/26 10:18:47;;;;;;;4.67;4.23;;;20.30;1.00;;;;;;5114309;28;20410;-64
2022/04/26 10:21:22;;;;;;;4.30;4.00;;;20.40;1.00;;;;;;5114795;28;20954;-68
2022/04/26 10:23:50;;;;;;;5.60;3.87;;;20.00;1.00;;;;;;5114775;28;20451;-67
2022/04/26 10:26:22;;;;;;;4.60;4.07;;;19.70;1.00;;;;;;5114445;28;20482;-63
2022/04/26 10:28:54;;;;;;;4.23;3.90;;;19.60;1.00;;;;;;5114414;28;20603;-64
2022/04/26 10:31:37;;;;;;;4.47;4.07;;;19.60;1.00;;;;;;5096237;28;20410;-63
2022/04/26 10:34:23;;;;;;;4.57;4.23;;;19.90;1.00;;;;;;5114541;28;20887;-64
2022/04/26 10:36:50;;;;;;;6.80;4.70;;;20.00;1.00;;;;;;5114747;28;20403;-68
2022/04/26 10:39:30;;;;;;;5.03;4.37;;;20.00;1.00;;;;;;5113870;28;20468;-63
2022/04/26 10:41:59;;;;;;;4.77;3.93;;;20.00;1.00;;;;;;5112606;28;20438;-66
2022/04/26 10:44:30;;;;;;;5.83;4.10;;;20.60;1.00;;;;;;5114225;28;20390;-63
2022/04/26 10:47:02;;;;;;;4.47;4.17;;;21.10;1.00;;;;;;5114480;28;20399;-69
2022/04/26 10:49:34;;;;;;;4.90;4.50;;;21.20;1.00;;;;;;5113750;28;20403;-69
2022/04/26 10:52:17;;;;;;;4.80;4.30;;;20.70;1.00;;;;;;5112939;28;20427;-69
2022/04/26 10:54:49;;;;;;;4.93;4.43;;;20.50;1.00;;;;;;5114207;28;20395;-64
2022/04/26 10:57:19;;;;;;;5.00;4.53;;;20.70;1.00;;;;;;5114427;28;20419;-64
2022/04/26 10:59:47;;;;;;;5.20;4.77;;;21.20;1.00;;;;;;5113636;28;20822;-64
2022/04/26 11:02:14;;;;;;;4.80;4.30;;;21.60;1.00;;;;;;5113624;28;20830;-68
2022/04/26 11:04:40;;;;;;;5.30;4.70;;;21.60;1.00;;;;;;5095837;28;20435;-69
2022/04/26 11:07:13;;;;;;;4.70;4.30;;;21.30;1.00;;;;;;5114109;28;20403;-68
2022/04/26 11:09:50;;;;;;;5.30;4.80;;;19.60;1.00;;;;;;5113407;28;20181;-64
2022/04/26 11:12:30;;;;;;;5.60;4.70;;;18.30;1.00;;;;;;5113907;28;20783;-69
2022/04/26 11:15:00;;;;;;;6.57;4.93;;;18.30;1.00;;;;;;5114017;28;20736;-69
2022/04/26 11:17:29;;;;;;;5.57;5.07;;;19.10;1.00;;;;;;5095746;28;20444;-65
2022/04/26 11:19:59;;;;;;;5.00;4.50;;;19.60;1.00;;;;;;5112952;28;20448;-64
2022/04/26 11:22:27;;;;;;;5.27;4.80;;;20.30;1.00;;;;;;5113712;28;20436;-69
2022/04/26 11:28:00;;;;;;;8.20;4.70;;;21.80;1.00;;;;;;5113915;28;20448;-64
2022/04/26 11:30:31;;;;;;;5.63;5.20;;;22.10;1.00;;;;;;5113186;28;20490;-68
2022/04/26 11:32:59;;;;;;;5.83;5.00;;;22.00;1.00;;;;;;5113717;28;20426;-69
2022/04/26 11:35:25;;;;;;;5.13;4.73;;;22.00;1.00;;;;;;5113579;28;20544;-64
2022/04/26 11:37:53;;;;;;;4.77;4.47;;;22.60;1.00;;;;;;5095477;28;20418;-64
2022/04/26 11:40:26;;;;;;;5.00;4.60;;;22.40;1.00;;;;;;5113004;28;20439;-64
2022/04/26 11:42:52;;;;;;;5.00;4.50;;;22.50;1.00;;;;;;5113479;28;20911;-64
2022/04/26 11:45:18;;;;;;;6.20;5.60;;;22.50;1.00;;;;;;5117248;28;20482;-70
2022/04/26 11:47:49;;;;;;;7.90;5.10;;;22.10;1.00;;;;;;5117981;28;20509;-63
2022/04/26 11:50:23;;;;;;;5.00;4.50;;;22.00;1.00;;;;;;5117127;28;20409;-69
2022/04/26 11:52:52;;;;;;;5.30;4.80;;;22.40;1.00;;;;;;5117039;28;20426;-64
2022/04/26 11:55:40;;;;;;;5.70;5.07;;;22.90;1.00;;;;;;5117723;28;20867;-69
2022/04/26 11:58:16;;;;;;;5.57;5.07;;;23.30;1.00;;;;;;5117322;28;20422;-69
2022/04/26 12:01:02;;;;;;;5.40;5.00;;;21.90;1.00;;;;;;5116594;28;20445;-62
2022/04/26 12:03:30;;;;;;;5.20;4.70;;;20.30;1.00;;;;;;5117605;28;20478;-70
2022/04/26 12:06:01;;;;;;;5.43;4.93;;;21.00;1.00;;;;;;5117648;28;20894;-69
2022/04/26 12:08:29;;;;;;;5.57;5.07;;;21.80;1.00;;;;;;5117423;28;20920;-70
2022/04/26 12:11:11;;;;;;;5.00;4.50;;;22.60;1.00;;;;;;5116657;28;20402;-65
2022/04/26 12:13:36;;;;;;;5.43;4.90;;;23.10;1.00;;;;;;5117353;28;21019;-69
2022/04/26 12:16:19;;;;;;;5.30;4.80;;;23.20;1.00;;;;;;5117516;28;20440;-69
2022/04/26 12:18:56;;;;;;;5.57;5.10;;;23.10;1.00;;;;;;5116328;28;20176;-67
2022/04/26 12:21:23;;;;;;;5.53;5.03;;;22.40;1.00;;;;;;5117146;28;20458;-64
2022/04/26 12:24:11;;;;;;;6.00;5.50;;;21.10;1.00;;;;;;5117051;28;20486;-69
2022/04/26 12:26:48;;;;;;;6.57;4.50;;;19.80;1.00;;;;;;5116698;28;20740;-68
2022/04/26 12:29:14;;;;;;;5.97;5.47;;;18.90;1.00;;;;;;5116097;28;20899;-68
2022/04/26 12:31:44;;;;;;;8.00;5.50;;;19.00;1.00;;;;;;5098942;28;20445;-68
2022/04/26 12:34:19;;;;;;;6.03;5.10;;;19.00;1.00;;;;;;5117067;28;20444;-62
2022/04/26 12:36:52;;;;;;;6.53;5.40;;;18.80;1.00;;;;;;5116922;28;20402;-64
2022/04/26 12:39:19;;;;;;;7.50;6.80;;;18.50;1.00;;;;;;5115906;28;20986;-68
2022/04/26 12:41:53;;;;;;;7.30;6.47;;;18.00;1.00;;;;;;5116700;28;20450;-68
2022/04/26 12:44:19;;;;;;;8.90;6.10;;;17.60;1.00;;;;;;5116356;28;20477;-65
2022/04/26 12:52:45;;;;;;;6.57;5.70;;;16.60;1.00;;;;;;5116599;28;20429;-68
2022/04/26 12:55:11;;;;;;;6.97;6.30;;;17.10;1.00;;;;;;5115629;28;20398;-66
2022/04/26 12:57:51;;;;;;;7.67;6.87;;;17.80;1.00;;;;;;5097893;28;20506;-68
2022/04/26 13:00:19;;;;;;;6.77;5.90;;;18.60;1.00;;;;;;5115632;28;20192;-69
2022/04/26 13:02:50;;;;;;;5.20;4.70;;;19.20;1.00;;;;;;5115714;28;20429;-67
2022/04/26 13:05:16;;;;;;;7.20;5.57;;;19.60;1.00;;;;;;5116391;28;20401;-64
2022/04/26 13:07:43;;;;;;;6.87;6.27;;;20.50;1.00;;;;;;5116320;28;20410;-64
2022/04/26 13:10:09;;;;;;;5.83;5.33;;;21.10;1.00;;;;;;5115274;28;20399;-64
2022/04/26 13:12:35;;;;;;;6.97;5.73;;;21.10;1.00;;;;;;5116295;28;20775;-64
2022/04/26 13:15:01;;;;;;;6.00;5.50;;;21.00;1.00;;;;;;5116265;28;20165;-68
2022/04/26 13:17:27;;;;;;;6.60;6.00;;;21.10;1.00;;;;;;5116056;28;20402;-64
2022/04/26 13:19:52;;;;;;;6.83;5.97;;;20.80;1.00;;;;;;5115119;28;20200;-68
2022/04/26 13:22:18;;;;;;;9.37;5.23;;;20.30;1.00;;;;;;5115621;28;20197;-69
2022/04/26 13:24:44;;;;;;;6.30;5.70;;;19.70;1.00;;;;;;5115854;28;20173;-66
2022/04/26 13:27:11;;;;;;;4.93;4.53;;;19.80;1.00;;;;;;5116067;28;20395;-63
2022/04/26 13:29:37;;;;;;;7.27;5.60;;;20.40;1.00;;;;;;5114726;28;20169;-69
2022/04/26 13:32:04;;;;;;;6.30;5.43;;;20.90;1.00;;;;;;5097452;28;20771;-64
2022/04/26 13:34:29;;;;;;;5.50;5.00;;;21.90;1.00;;;;;;5115556;28;20165;-64
2022/04/26 13:36:55;;;;;;;5.63;5.10;;;22.90;1.00;;;;;;5115685;28;20406;-68
2022/04/26 13:39:21;;;;;;;12.20;5.80;;;23.40;1.00;;;;;;5114525;28;20225;-63
2022/04/26 13:41:50;;;;;;;6.73;6.13;;;23.20;1.00;;;;;;5115406;28;20238;-64
2022/04/26 13:44:21;;;;;;;6.20;5.63;;;22.70;1.00;;;;;;5115570;28;20399;-64
2022/04/26 13:46:47;;;;;;;6.37;5.70;;;22.20;1.00;;;;;;5115468;28;20479;-68
2022/04/26 13:49:13;;;;;;;5.77;5.20;;;21.10;1.00;;;;;;5114384;28;20407;-67
2022/04/26 13:51:38;;;;;;;6.43;5.83;;;19.70;1.00;;;;;;5115133;28;20504;-68
2022/04/26 13:54:04;;;;;;;7.17;6.27;;;18.80;1.00;;;;;;5097390;28;20416;-69
2022/04/26 13:56:30;;;;;;;6.33;5.70;;;18.80;1.00;;;;;;5115192;28;20183;-69
2022/04/26 13:58:56;;;;;;;6.43;5.83;;;19.40;1.00;;;;;;5114072;28;20196;-67
2022/04/26 14:01:23;;;;;;;13.93;6.30;;;19.90;1.00;;;;;;5097028;28;20446;-64
2022/04/26 14:03:49;;;;;;;6.43;5.83;;;20.70;1.00;;;;;;5115344;28;20165;-65
2022/04/26 14:06:18;;;;;;;8.90;6.70;;;19.80;1.00;;;;;;5114790;28;20407;-64
2022/04/26 14:08:48;;;;;;;6.43;5.83;;;19.50;1.00;;;;;;5113946;28;20427;-64
2022/04/26 14:11:15;;;;;;;6.40;5.67;;;19.50;1.00;;;;;;5114945;28;20425;-68
2022/04/26 14:21:52;;;;;;;5.70;5.20;;;21.10;1.00;;;;;;5114824;28;20503;-69
2022/04/26 14:24:18;;;;;;;5.73;5.23;;;20.80;1.00;;;;;;5114889;28;20434;-69
2022/04/26 14:26:43;;;;;;;14.40;5.50;;;20.70;1.00;;;;;;5114775;28;20245;-64
2022/04/26 14:29:09;;;;;;;5.33;4.90;;;20.30;1.00;;;;;;5113867;28;20207;-69
2022/04/26 14:31:36;;;;;;;4.90;4.33;;;20.00;1.00;;;;;;5114535;28;20556;-64
2022/04/26 14:34:02;;;;;;;4.53;4.13;;;19.80;1.00;;;;;;5114500;28;20165;-63
2022/04/26 14:36:28;;;;;;;5.13;4.63;;;19.60;1.00;;;;;;5114232;28;20433;-63
2022/04/26 14:38:54;;;;;;;6.37;5.43;;;19.40;1.00;;;;;;5113629;28;20951;-64
2022/04/26 14:41:20;;;;;;;6.03;5.10;;;18.80;1.00;;;;;;5114435;28;20192;-69
2022/04/26 14:43:45;;;;;;;4.90;4.50;;;18.90;1.00;;;;;;5114374;28;20448;-63
2022/04/26 14:46:11;;;;;;;5.33;4.93;;;19.10;1.00;;;;;;5114150;28;20644;-68
2022/04/26 14:48:38;;;;;;;5.07;4.67;;;17.90;1.00;;;;;;5113289;28;20163;-69
2022/04/26 14:51:04;;;;;;;3.63;3.33;;;17.20;1.00;;;;;;5114126;28;20192;-64
2022/04/26 14:53:30;;;;;;;4.83;4.43;;;17.40;1.00;;;;;;5113701;28;20415;-64
2022/04/26 14:55:59;;;;;;;5.53;4.90;;;17.40;1.00;;;;;;5095932;28;20398;-63
2022/04/26 14:58:25;;;;;;;5.93;5.53;;;18.00;1.00;;;;;;5113719;28;20267;-64
2022/04/26 15:00:51;;;;;;;5.10;4.50;;;19.20;1.00;;;;;;5113373;28;20481;-64
2022/04/26 15:03:17;;;;;;;4.70;4.30;;;19.90;1.00;;;;;;5113789;28;20790;-68
2022/04/26 15:05:43;;;;;;;4.77;4.30;;;19.70;1.00;;;;;;5114090;28;20481;-68
2022/04/26 15:10:52;;;;;;;4.90;4.30;;;18.70;1.00;;;;;;5113276;28;20694;-63
2022/04/26 15:18:46;;;;;;;5.87;4.63;;;16.30;1.00;;;;;;5112308;28;20401;-63
2022/04/26 15:21:11;;;;;;;4.60;4.20;;;15.90;1.00;;;;;;5113769;28;20438;-67
2022/04/26 15:23:37;;;;;;;4.40;4.10;;;15.80;1.00;;;;;;5113966;28;20185;-63
2022/04/26 15:26:06;;;;;;;5.27;4.77;;;15.70;1.00;;;;;;5114026;28;20168;-67
2022/04/26 15:28:33;;;;;;;8.07;5.20;;;15.50;1.00;;;;;;5112970;28;20161;-69
2022/04/26 15:30:59;;;;;;;5.57;5.07;;;15.50;1.00;;;;;;5113386;28;20407;-64
2022/04/26 15:33:25;;;;;;;5.47;4.97;;;15.40;1.00;;;;;;5113642;28;20407;-62
2022/04/26 15:35:51;;;;;;;5.77;4.70;;;15.40;1.00;;;;;;5095397;28;20464;-68
2022/04/26 15:38:17;;;;;;;6.10;5.60;;;15.40;1.00;;;;;;5113780;28;20210;-67
2022/04/26 15:40:46;;;;;;;6.30;5.70;;;15.20;1.00;;;;;;5112624;28;20454;-63
2022/04/26 15:43:12;;;;;;;5.70;5.23;;;14.90;1.00;;;;;;5113787;28;20466;-68
2022/04/26 15:45:39;;;;;;;13.00;5.30;;;15.10;1.00;;;;;;5113075;28;20418;-63
2022/04/26 15:48:05;;;;;;;8.20;5.20;;;15.70;1.00;;;;;;5112914;28;20418;-66
2022/04/26 15:50:31;;;;;;;5.53;5.00;;;16.30;1.00;;;;;;5112070;28;20463;-63
2022/04/26 15:52:57;;;;;;;8.07;5.23;;;16.40;1.00;;;;;;5097781;28;20535;-66
2022/04/26 15:55:23;;;;;;;6.10;5.00;;;16.30;1.00;;;;;;5083513;28;20177;-68
2022/04/26 15:57:53;;;;;;;5.33;4.93;;;16.20;1.00;;;;;;5105828;28;20182;-67
2022/04/26 16:00:20;;;;;;;5.80;5.20;;;15.80;1.00;;;;;;5110022;28;20457;-67
2022/04/26 16:02:47;;;;;;;6.50;5.80;;;15.40;1.00;;;;;;5112341;28;20438;-64
2022/04/26 16:05:13;;;;;;;5.50;5.07;;;15.40;1.00;;;;;;5113638;28;20413;-63
2022/04/26 16:07:39;;;;;;;5.97;5.43;;;15.10;1.00;;;;;;5112515;28;20502;-68
2022/04/26 16:21:05;;;;;;;5.10;4.70;;;14.50;1.00;;;;;;5113293;28;20815;-63
2022/04/26 16:23:31;;;;;;;7.63;5.83;;;14.30;1.00;;;;;;5113008;28;21017;-63
2022/04/26 16:26:01;;;;;;;6.53;5.93;;;14.30;1.00;;;;;;5113191;28;20512;-65
2022/04/26 16:28:29;;;;;;;8.80;5.80;;;14.30;1.00;;;;;;5101443;28;20174;-70
2022/04/26 16:30:55;;;;;;;6.30;5.70;;;14.10;1.00;;;;;;5102467;28;20926;-63
2022/04/26 16:33:20;;;;;;;7.30;5.63;;;14.00;1.00;;;;;;5116854;28;20437;-67
2022/04/26 16:35:46;;;;;;;6.07;5.57;;;13.90;1.00;;;;;;5116138;28;20419;-66
2022/04/26 16:38:12;;;;;;;8.13;5.60;;;13.80;1.00;;;;;;5116802;28;20161;-67
2022/04/26 16:40:38;;;;;;;5.30;4.80;;;13.80;1.00;;;;;;5115600;28;20705;-66
2022/04/26 16:43:04;;;;;;;6.00;5.37;;;13.90;1.00;;;;;;5116651;28;20204;-63
2022/04/26 16:45:30;;;;;;;6.23;5.70;;;14.10;1.00;;;;;;5116052;28;20447;-67
2022/04/26 16:47:56;;;;;;;10.30;5.57;;;14.00;1.00;;;;;;5116726;28;20474;-65
2022/04/26 16:50:22;;;;;;;8.07;6.10;;;14.00;1.00;;;;;;5114290;28;20497;-67
2022/04/26 16:52:49;;;;;;;7.17;5.20;;;13.80;1.00;;;;;;5096056;28;20186;-67
2022/04/26 16:55:15;;;;;;;5.97;5.20;;;13.60;1.00;;;;;;5098968;28;20260;-67
2022/04/26 16:57:41;;;;;;;8.03;5.80;;;13.60;1.00;;;;;;5116261;28;20409;-63
2022/04/26 17:00:07;;;;;;;7.03;5.80;;;13.60;1.00;;;;;;5115097;28;20458;-63
2022/04/26 17:02:33;;;;;;;6.63;5.40;;;13.60;1.00;;;;;;5116373;28;20589;-63
2022/04/26 17:04:59;;;;;;;7.27;6.57;;;13.50;1.00;;;;;;5115751;28;20446;-67
2022/04/26 17:07:25;;;;;;;6.13;5.50;;;13.50;1.00;;;;;;5116356;28;20184;-67
2022/04/26 17:09:52;;;;;;;8.67;5.73;;;13.40;1.00;;;;;;5113389;28;20169;-64
2022/04/26 17:12:18;;;;;;;6.43;5.10;;;13.30;1.00;;;;;;5116202;28;20437;-66
2022/04/26 17:14:44;;;;;;;6.83;4.50;;;13.30;1.00;;;;;;5116322;28;20373;-62
2022/04/26 17:17:13;;;;;;;7.23;4.90;;;13.30;1.00;;;;;;5116000;28;20402;-67
2022/04/26 17:19:40;;;;;;;8.97;5.03;;;13.30;1.00;;;;;;5114966;28;20173;-62
2022/04/26 17:22:05;;;;;;;7.27;5.10;;;13.20;1.00;;;;;;5115534;28;20386;-66
2022/04/26 17:27:17;;;;;;;5.10;4.17;;;13.30;1.00;;;;;;5115811;28;20168;-66
2022/04/26 17:29:42;;;;;;;10.53;5.73;;;13.40;1.00;;;;;;5114973;28;20914;-65